Time;durP1;ratioP1;P1;durP2;ratioP2;P2;SDS_P1;SDS_P2;PMS_P1;PMS_P2;Temp;Humidity;BMP_temperature;BMP_pressure;BME280_temperature;BME280_humidity;BME280_pressure;Samples;Min_cycle;Max_cycle;Signal;HPM_P1;HPM_P2
2022/06/12 00:00:17;;;;;;;11.23;2.90;;;12.50;99.90;;;;;;4945073;28;20062;-88
2022/06/12 00:03:39;;;;;;;8.50;2.90;;;12.40;99.90;;;;;;5019811;28;20049;-88
2022/06/12 00:06:42;;;;;;;12.20;3.83;;;12.50;99.90;;;;;;5028515;28;20427;-88
2022/06/12 00:09:44;;;;;;;;;;;;;;;;;;;;;
2022/06/12 00:15:43;;;;;;;12.37;3.40;;;12.50;99.90;;;;;;5031143;28;20048;-87
2022/06/12 00:18:17;;;;;;;14.97;3.87;;;12.30;99.90;;;;;;5005019;28;20040;-88
2022/06/12 00:20:49;;;;;;;11.43;3.67;;;12.60;99.90;;;;;;5014127;28;20045;-87
2022/06/12 00:24:10;;;;;;;12.90;3.47;;;12.40;99.90;;;;;;5027355;28;20119;-88
2022/06/12 00:27:12;;;;;;;15.17;4.30;;;12.50;99.90;;;;;;5003442;28;20044;-87
2022/06/12 00:30:01;;;;;;;9.00;2.80;;;12.40;99.90;;;;;;4999835;28;20041;-87
2022/06/12 00:32:32;;;;;;;16.03;4.17;;;12.40;99.90;;;;;;5016574;28;20408;-88
2022/06/12 00:35:30;;;;;;;10.13;3.40;;;12.60;99.90;;;;;;5003902;28;20033;-88
2022/06/12 00:38:01;;;;;;;12.50;3.90;;;12.40;99.90;;;;;;4991050;28;20046;-89
2022/06/12 00:41:02;;;;;;;11.33;3.70;;;12.50;99.90;;;;;;5001166;28;20407;-90
2022/06/12 00:43:31;;;;;;;15.93;4.40;;;12.80;99.90;;;;;;5003280;28;20050;-87
2022/06/12 00:46:03;;;;;;;10.90;3.20;;;12.70;99.90;;;;;;5017500;28;20116;-87
2022/06/12 00:48:38;;;;;;;9.43;3.50;;;12.60;99.90;;;;;;5005145;28;20487;-87
2022/06/12 00:51:26;;;;;;;10.80;3.90;;;12.80;99.90;;;;;;5018633;28;20041;-89
2022/06/12 00:54:25;;;;;;;9.38;3.33;;;12.60;99.90;;;;;;5026365;28;20060;-89
2022/06/12 00:57:03;;;;;;;11.90;3.53;;;12.60;99.90;;;;;;5018919;28;20044;-88
2022/06/12 00:59:48;;;;;;;5.50;2.80;;;12.60;99.90;;;;;;5019259;28;20094;-91
2022/06/12 01:02:32;;;;;;;;;;;12.30;99.90;;;;;;5016701;28;20049;-90
2022/06/12 01:09:18;;;;;;;9.27;3.43;;;12.00;99.90;;;;;;4984816;28;20517;-87
2022/06/12 01:12:20;;;;;;;13.43;3.97;;;12.10;99.90;;;;;;5020691;28;20037;-87
2022/06/12 01:14:50;;;;;;;11.47;3.90;;;12.00;99.90;;;;;;5024241;28;20103;-87
2022/06/12 01:17:23;;;;;;;10.80;4.10;;;11.90;99.90;;;;;;4999040;28;20041;-88
2022/06/12 01:20:04;;;;;;;14.77;3.83;;;12.00;99.90;;;;;;5001866;28;20044;-86
2022/06/12 01:23:11;;;;;;;13.83;4.13;;;12.00;99.90;;;;;;5014620;28;20049;-87
2022/06/12 01:26:05;;;;;;;9.97;3.80;;;12.00;99.90;;;;;;5017332;28;20512;-88
2022/06/12 01:28:44;;;;;;;13.87;3.87;;;12.00;99.90;;;;;;5026751;28;20052;-91
2022/06/12 01:31:38;;;;;;;13.13;4.57;;;11.90;99.90;;;;;;5017781;28;20054;-87
2022/06/12 01:34:49;;;;;;;10.10;3.67;;;12.00;99.90;;;;;;5000441;28;20037;-87
2022/06/12 01:37:47;;;;;;;12.53;3.90;;;12.00;99.90;;;;;;5014347;28;20045;-87
2022/06/12 01:41:02;;;;;;;9.07;3.37;;;11.90;99.90;;;;;;5017749;28;20041;-88
2022/06/12 01:43:52;;;;;;;8.53;3.47;;;11.90;99.90;;;;;;4993832;28;20470;-88
2022/06/12 01:46:50;;;;;;;;;;;;;;;;;;;;;
2022/06/12 01:49:48;;;;;;;14.27;3.87;;;11.90;99.90;;;;;;5030230;28;20037;-88
2022/06/12 01:52:41;;;;;;;9.07;3.83;;;11.70;99.90;;;;;;5021622;28;20052;-88
2022/06/12 01:55:58;;;;;;;10.63;3.42;;;11.70;99.90;;;;;;5011323;28;20513;-87
2022/06/12 02:03:21;;;;;;;7.87;3.60;;;11.60;99.90;;;;;;4963671;28;20046;-86
2022/06/12 02:06:26;;;;;;;11.57;3.83;;;11.50;99.90;;;;;;5002300;28;20083;-87
2022/06/12 02:09:25;;;;;;;10.90;3.80;;;11.50;99.90;;;;;;5039020;28;20042;-88
2022/06/12 02:15:05;;;;;;;7.60;3.47;;;11.70;99.90;;;;;;5025027;28;19963;-87
2022/06/12 02:17:55;;;;;;;10.97;3.87;;;11.50;99.90;;;;;;5019016;28;20071;-88
2022/06/12 02:24:49;;;;;;;14.33;4.03;;;11.50;99.90;;;;;;4961506;28;20045;-87
2022/06/12 02:27:43;;;;;;;9.33;3.87;;;11.60;99.90;;;;;;5051926;28;20052;-87
2022/06/12 02:30:19;;;;;;;7.10;3.80;;;11.40;99.90;;;;;;5028270;28;20104;-88
2022/06/12 02:32:50;;;;;;;11.23;3.80;;;11.40;99.90;;;;;;5010659;28;20045;-88
2022/06/12 02:35:25;;;;;;;9.13;3.97;;;11.50;99.90;;;;;;5007422;28;20076;-87
2022/06/12 02:38:24;;;;;;;9.48;3.55;;;11.40;99.90;;;;;;5013217;28;20045;-89
2022/06/12 02:41:23;;;;;;;6.77;3.10;;;11.40;99.90;;;;;;5021038;28;20048;-88
2022/06/12 02:44:06;;;;;;;8.47;3.40;;;11.40;99.90;;;;;;4993934;28;20041;-86
2022/06/12 02:46:41;;;;;;;14.97;4.20;;;11.20;99.90;;;;;;5010410;28;22467;-87
2022/06/12 02:49:12;;;;;;;15.33;4.63;;;11.30;99.90;;;;;;5017723;28;20051;-87
2022/06/12 02:52:02;;;;;;;12.53;4.20;;;11.50;99.90;;;;;;5012653;28;20459;-88
2022/06/12 02:54:38;;;;;;;11.07;4.20;;;11.30;99.90;;;;;;4997073;28;20137;-88
2022/06/12 02:57:22;;;;;;;9.90;3.63;;;11.50;99.90;;;;;;4987990;28;20060;-88
2022/06/12 03:00:07;;;;;;;16.25;4.35;;;11.60;99.90;;;;;;4991535;28;20048;-88
2022/06/12 03:02:43;;;;;;;11.33;3.37;;;11.40;99.90;;;;;;5007734;28;20046;-87
2022/06/12 03:05:33;;;;;;;13.33;3.70;;;11.60;99.90;;;;;;4998208;28;20480;-88
2022/06/12 03:08:17;;;;;;;12.90;4.07;;;11.80;99.90;;;;;;5011967;28;20052;-88
2022/06/12 03:11:37;;;;;;;10.27;4.27;;;11.60;99.90;;;;;;5041342;28;21334;-88
2022/06/12 03:15:01;;;;;;;12.88;4.82;;;11.50;99.90;;;;;;4991909;28;20492;-89
2022/06/12 03:18:04;;;;;;;13.10;4.17;;;11.60;99.90;;;;;;5019175;28;20051;-88
2022/06/12 03:20:50;;;;;;;;;;;11.80;99.90;;;;;;4991848;28;20507;-88
2022/06/12 03:23:45;;;;;;;12.23;4.13;;;11.60;99.90;;;;;;5000150;28;19917;-89
2022/06/12 03:26:38;;;;;;;13.97;4.33;;;11.60;99.90;;;;;;5010667;28;20041;-88
2022/06/12 03:29:26;;;;;;;10.97;4.17;;;11.70;99.90;;;;;;5014216;28;20044;-88
2022/06/12 03:32:15;;;;;;;10.43;4.30;;;11.80;99.90;;;;;;5002267;28;20041;-89
2022/06/12 03:35:20;;;;;;;11.03;4.20;;;11.70;99.90;;;;;;5011429;28;20465;-89
2022/06/12 03:37:58;;;;;;;14.03;3.83;;;11.70;99.90;;;;;;5031848;28;20048;-88
2022/06/12 03:40:33;;;;;;;11.90;4.00;;;11.50;99.90;;;;;;5018322;28;20072;-89
2022/06/12 03:43:15;;;;;;;10.33;3.90;;;11.70;99.90;;;;;;5001605;28;20048;-88
2022/06/12 03:45:46;;;;;;;12.20;3.87;;;11.90;99.90;;;;;;4997126;28;20054;-88
2022/06/12 03:48:21;;;;;;;10.10;3.97;;;11.90;99.90;;;;;;4998239;28;20046;-88
2022/06/12 03:51:22;;;;;;;12.07;3.83;;;11.80;99.90;;;;;;5019878;28;20394;-90
2022/06/12 03:53:54;;;;;;;8.83;3.93;;;11.70;99.90;;;;;;5001582;28;20049;-89
2022/06/12 03:59:21;;;;;;;11.50;3.30;;;12.00;99.90;;;;;;5026296;28;20056;-87
2022/06/12 04:01:51;;;;;;;11.50;4.10;;;11.80;99.90;;;;;;5012441;28;20049;-90
2022/06/12 04:04:20;;;;;;;8.37;3.67;;;11.90;99.90;;;;;;5012625;28;20044;-89
2022/06/12 04:06:54;;;;;;;13.10;3.43;;;11.90;99.90;;;;;;5012081;28;20491;-90
2022/06/12 04:09:25;;;;;;;10.33;3.30;;;12.10;99.90;;;;;;5005121;28;20053;-87
2022/06/12 04:11:54;;;;;;;11.90;3.93;;;11.90;99.90;;;;;;5021645;28;20052;-88
2022/06/12 04:14:28;;;;;;;11.90;3.40;;;12.00;99.90;;;;;;5022707;28;20110;-87
2022/06/12 04:16:56;;;;;;;;;;;12.00;99.90;;;;;;5023794;28;20056;-88
2022/06/12 04:19:26;;;;;;;10.93;4.00;;;12.00;99.90;;;;;;5014816;28;20015;-86
2022/06/12 04:22:00;;;;;;;12.50;3.30;;;12.20;99.90;;;;;;5028653;28;20076;-87
2022/06/12 04:24:40;;;;;;;10.70;3.50;;;12.10;99.90;;;;;;5021363;28;20041;-87
2022/06/12 04:27:12;;;;;;;10.40;3.43;;;12.30;99.90;;;;;;5031300;28;20049;-88
2022/06/12 04:29:53;;;;;;;10.77;3.27;;;12.30;99.90;;;;;;5017438;28;20315;-88
2022/06/12 04:32:20;;;;;;;12.00;3.57;;;12.40;99.90;;;;;;5015485;28;20048;-89
2022/06/12 04:34:46;;;;;;;10.57;3.50;;;12.30;99.90;;;;;;5024156;28;20746;-87
2022/06/12 04:37:15;;;;;;;6.77;2.80;;;12.40;99.90;;;;;;5009343;28;20063;-88
2022/06/12 04:39:43;;;;;;;13.37;3.60;;;12.40;99.90;;;;;;5010645;28;20411;-89
2022/06/12 04:42:11;;;;;;;10.80;3.80;;;12.40;99.90;;;;;;5020151;28;20457;-89
2022/06/12 04:44:37;;;;;;;10.60;3.17;;;12.60;99.90;;;;;;5020045;28;20040;-90
2022/06/12 04:47:10;;;;;;;11.27;3.70;;;12.40;99.90;;;;;;5028734;28;20047;-90
2022/06/12 04:49:36;;;;;;;18.17;3.65;;;12.60;99.90;;;;;;5030132;28;20045;-89
2022/06/12 04:52:06;;;;;;;11.13;3.70;;;12.60;99.90;;;;;;5005499;28;20041;-89
2022/06/12 04:54:34;;;;;;;11.07;3.20;;;12.60;99.90;;;;;;5011464;28;20488;-88
2022/06/12 04:56:59;;;;;;;13.30;3.80;;;12.70;99.90;;;;;;5020887;28;20072;-87
2022/06/12 04:59:27;;;;;;;14.80;3.47;;;12.80;99.90;;;;;;5003212;28;20538;-91
2022/06/12 05:01:59;;;;;;;12.93;3.40;;;12.80;99.90;;;;;;5019620;28;20044;-89
2022/06/12 05:04:27;;;;;;;11.13;3.27;;;13.00;99.90;;;;;;5018588;28;20072;-89
2022/06/12 05:06:54;;;;;;;8.50;3.07;;;12.90;99.90;;;;;;5011070;28;20060;-88
2022/06/12 05:09:23;;;;;;;11.40;3.03;;;13.20;99.90;;;;;;5017046;28;20041;-89
2022/06/12 05:12:00;;;;;;;14.87;4.10;;;13.20;99.90;;;;;;5011707;28;20051;-88
2022/06/12 05:14:26;;;;;;;12.43;3.43;;;13.50;99.90;;;;;;5003108;28;20135;-90
2022/06/12 05:16:55;;;;;;;15.80;3.73;;;13.40;99.90;;;;;;5000723;28;20543;-88
2022/06/12 05:19:33;;;;;;;12.10;3.47;;;13.50;99.90;;;;;;4986942;28;20037;-88
2022/06/12 05:22:01;;;;;;;13.03;3.83;;;13.60;99.90;;;;;;5042072;28;20514;-88
2022/06/12 05:24:32;;;;;;;13.70;3.90;;;13.40;99.90;;;;;;5010151;28;20065;-86
2022/06/12 05:26:59;;;;;;;10.70;3.00;;;13.50;99.90;;;;;;4984012;28;20049;-89
2022/06/12 05:29:36;;;;;;;14.33;3.63;;;13.60;99.90;;;;;;4986469;28;20053;-89
2022/06/12 05:32:03;;;;;;;14.73;3.27;;;13.90;99.90;;;;;;5003090;28;20155;-90
2022/06/12 05:34:34;;;;;;;13.03;3.27;;;14.40;99.90;;;;;;5018198;28;20045;-89
2022/06/12 05:37:02;;;;;;;18.67;3.70;;;14.80;99.90;;;;;;5019205;28;20049;-89
2022/06/12 05:39:28;;;;;;;13.17;3.40;;;14.80;99.90;;;;;;5018382;28;20045;-90
2022/06/12 05:41:54;;;;;;;17.07;4.00;;;14.70;99.90;;;;;;5003088;28;20450;-86
2022/06/12 05:44:46;;;;;;;13.77;3.60;;;14.60;99.90;;;;;;5018538;28;20041;-87
2022/06/12 05:47:13;;;;;;;13.43;3.70;;;14.60;99.90;;;;;;5021994;28;20045;-89
2022/06/12 05:49:40;;;;;;;16.03;4.13;;;14.60;99.90;;;;;;5018644;28;20049;-88
2022/06/12 05:52:08;;;;;;;20.13;4.63;;;14.70;99.90;;;;;;5000623;28;20049;-88
2022/06/12 05:54:38;;;;;;;17.03;4.10;;;14.80;99.90;;;;;;5010369;28;20056;-92
2022/06/12 05:57:05;;;;;;;21.77;4.03;;;14.90;99.90;;;;;;5024983;28;20055;-91
2022/06/12 05:59:32;;;;;;;16.60;3.63;;;15.00;99.90;;;;;;5021765;28;20411;-88
2022/06/12 06:02:01;;;;;;;15.17;4.07;;;15.20;99.90;;;;;;5000109;28;20041;-89
2022/06/12 06:04:27;;;;;;;18.47;4.07;;;15.40;99.90;;;;;;5028611;28;20517;-91
2022/06/12 06:07:00;;;;;;;21.90;4.30;;;15.50;99.90;;;;;;5003035;28;20037;-87
2022/06/12 06:09:27;;;;;;;19.00;4.50;;;15.70;99.90;;;;;;5018806;28;20040;-88
2022/06/12 06:24:29;;;;;;;23.87;5.00;;;15.50;99.90;;;;;;5030804;28;20568;-88
2022/06/12 06:28:09;;;;;;;22.47;4.27;;;15.60;99.90;;;;;;5015746;28;20042;-92
2022/06/12 06:34:21;;;;;;;16.35;4.00;;;15.30;99.90;;;;;;5051793;28;20059;-93
2022/06/12 06:36:47;;;;;;;16.00;4.60;;;15.60;99.90;;;;;;5025561;28;20056;-91
2022/06/12 06:39:19;;;;;;;19.37;4.43;;;15.60;99.90;;;;;;5042678;28;20040;-95
2022/06/12 06:41:53;;;;;;;20.23;4.27;;;15.70;99.90;;;;;;5028646;28;20059;-86
2022/06/12 06:50:45;;;;;;;20.03;4.93;;;15.90;99.90;;;;;;4976848;28;20524;-90
2022/06/12 06:53:11;;;;;;;18.43;4.83;;;16.00;99.90;;;;;;4993675;28;20046;-89
2022/06/12 06:55:38;;;;;;;24.47;5.40;;;16.10;99.90;;;;;;4983841;28;20066;-89
2022/06/12 06:58:08;;;;;;;21.27;5.53;;;15.90;99.90;;;;;;4963114;28;20494;-87
2022/06/12 07:00:36;;;;;;;22.90;5.30;;;16.00;99.90;;;;;;4994128;28;20424;-87
2022/06/12 07:03:02;;;;;;;19.40;5.00;;;16.00;99.90;;;;;;5023977;28;20044;-86
2022/06/12 07:05:29;;;;;;;21.93;5.77;;;16.20;99.90;;;;;;5014281;28;20135;-89
2022/06/12 07:07:55;;;;;;;20.27;5.30;;;16.30;99.90;;;;;;5048147;28;20035;-89
2022/06/12 07:10:25;;;;;;;17.70;4.67;;;16.40;99.90;;;;;;5020262;28;20124;-88
2022/06/12 07:12:51;;;;;;;16.80;4.70;;;16.50;99.90;;;;;;5017182;28;20128;-89
2022/06/12 07:15:20;;;;;;;18.60;4.70;;;16.50;99.90;;;;;;5023604;28;20040;-86
2022/06/12 07:17:51;;;;;;;22.60;5.67;;;16.60;99.90;;;;;;5020255;28;20395;-89
2022/06/12 07:20:49;;;;;;;27.63;6.27;;;16.60;99.90;;;;;;5060708;28;20055;-85
2022/06/12 07:23:21;;;;;;;19.10;5.10;;;16.70;99.90;;;;;;5022641;28;20055;-88
2022/06/12 07:25:51;;;;;;;20.70;5.23;;;16.70;99.90;;;;;;5049809;28;20106;-86
2022/06/12 07:28:18;;;;;;;22.27;4.93;;;16.90;99.90;;;;;;5026805;28;20032;-87
2022/06/12 07:31:22;;;;;;;19.83;4.83;;;16.90;99.90;;;;;;5042381;28;20076;-87
2022/06/12 07:33:49;;;;;;;21.27;4.68;;;16.90;99.90;;;;;;5058531;28;20056;-91
2022/06/12 07:36:16;;;;;;;18.13;5.43;;;17.00;99.90;;;;;;5053843;28;20490;-88
2022/06/12 07:38:50;;;;;;;22.33;5.47;;;17.00;99.90;;;;;;5025149;28;20043;-87
2022/06/12 07:41:18;;;;;;;;;;;17.00;99.90;;;;;;5041262;28;20376;-90
2022/06/12 07:43:45;;;;;;;19.77;5.60;;;17.10;99.90;;;;;;5027488;28;20381;-87
2022/06/12 07:46:19;;;;;;;19.90;5.40;;;17.20;99.90;;;;;;5053842;28;20040;-88
2022/06/12 07:49:13;;;;;;;18.10;5.20;;;17.30;99.90;;;;;;5020105;28;20037;-85
2022/06/12 07:51:43;;;;;;;25.30;5.57;;;17.40;99.90;;;;;;5019928;28;20135;-87
2022/06/12 07:54:42;;;;;;;;;;;;;;;;;;;;;
2022/06/12 07:57:27;;;;;;;21.27;5.13;;;17.70;99.90;;;;;;5077715;28;20055;-90
2022/06/12 07:59:57;;;;;;;22.83;4.90;;;18.00;99.90;;;;;;5038434;28;20041;-88
2022/06/12 08:02:22;;;;;;;22.37;5.27;;;18.10;99.90;;;;;;5038480;28;20048;-86
2022/06/12 08:04:50;;;;;;;24.77;5.60;;;18.10;99.90;;;;;;5032587;28;20417;-91
2022/06/12 08:07:40;;;;;;;21.80;5.17;;;18.20;99.90;;;;;;5036620;28;20108;-93
2022/06/12 08:13:55;;;;;;;15.13;4.60;;;18.50;99.90;;;;;;5077422;28;20036;-90
2022/06/12 08:16:25;;;;;;;18.37;5.03;;;18.70;99.90;;;;;;5034294;28;20498;-88
2022/06/12 08:18:54;;;;;;;21.73;4.53;;;18.90;99.90;;;;;;5025414;28;20688;-89
2022/06/12 08:21:22;;;;;;;17.30;4.77;;;19.10;99.90;;;;;;5024074;28;20041;-87
2022/06/12 08:23:50;;;;;;;18.37;4.50;;;18.90;99.90;;;;;;5031945;28;20048;-87
2022/06/12 08:26:19;;;;;;;14.17;4.77;;;18.90;99.90;;;;;;5032502;28;20032;-86
2022/06/12 08:28:48;;;;;;;17.20;5.03;;;18.90;99.90;;;;;;5032846;28;20097;-89
2022/06/12 08:31:18;;;;;;;18.87;4.40;;;18.90;99.90;;;;;;5033577;28;20119;-87
2022/06/12 08:33:46;;;;;;;19.10;4.70;;;19.00;99.90;;;;;;5022775;28;20032;-88
2022/06/12 08:36:17;;;;;;;17.37;5.00;;;19.20;99.90;;;;;;5037930;28;20119;-87
2022/06/12 08:38:50;;;;;;;18.50;4.33;;;19.40;99.90;;;;;;5020066;28;20055;-87
2022/06/12 08:41:33;;;;;;;19.67;4.37;;;19.50;99.90;;;;;;5019603;28;20045;-88
2022/06/12 08:44:33;;;;;;;16.60;4.67;;;19.60;99.90;;;;;;5020321;28;20044;-89
2022/06/12 08:47:11;;;;;;;17.37;4.60;;;19.70;99.90;;;;;;4970134;28;20053;-88
2022/06/12 08:49:47;;;;;;;23.03;4.77;;;20.00;99.90;;;;;;4980345;28;20501;-85
2022/06/12 08:52:17;;;;;;;20.80;4.77;;;19.90;99.90;;;;;;5011727;28;20052;-89
2022/06/12 08:54:56;;;;;;;18.77;4.50;;;20.00;99.90;;;;;;5038639;28;20052;-87
2022/06/12 08:57:28;;;;;;;15.73;4.47;;;20.00;99.90;;;;;;5027016;28;20474;-85
2022/06/12 09:00:22;;;;;;;18.87;4.30;;;20.20;99.90;;;;;;5034271;28;20043;-90
2022/06/12 09:02:49;;;;;;;22.47;4.77;;;20.30;99.90;;;;;;5019437;28;20055;-88
2022/06/12 09:05:38;;;;;;;;;;;20.30;99.90;;;;;;5054016;28;20355;-89
2022/06/12 09:08:48;;;;;;;12.13;3.70;;;20.50;99.90;;;;;;5036797;28;19916;-89
2022/06/12 09:11:32;;;;;;;;;;;20.70;99.90;;;;;;5056751;28;20049;-88
2022/06/12 09:14:13;;;;;;;16.23;3.80;;;20.90;99.90;;;;;;5024633;28;19927;-89
2022/06/12 09:17:09;;;;;;;14.53;4.20;;;20.90;99.90;;;;;;5035595;28;20052;-92
2022/06/12 09:23:00;;;;;;;18.17;4.23;;;21.30;99.90;;;;;;5066701;28;20040;-86
2022/06/12 09:26:10;;;;;;;13.77;3.33;;;21.50;99.90;;;;;;5027766;28;20068;-91
2022/06/12 09:28:50;;;;;;;16.00;3.30;;;21.60;99.90;;;;;;5025751;28;20376;-87
2022/06/12 09:31:24;;;;;;;14.33;3.50;;;21.80;99.90;;;;;;5043891;28;20090;-90
2022/06/12 09:34:12;;;;;;;;;;;21.80;99.90;;;;;;5036278;28;20418;-89
2022/06/12 09:40:02;;;;;;;12.93;3.40;;;21.90;99.90;;;;;;5015149;28;20044;-90
2022/06/12 09:42:37;;;;;;;14.17;3.43;;;22.00;99.90;;;;;;5021017;28;20064;-88
2022/06/12 09:45:12;;;;;;;15.23;3.07;;;22.10;99.90;;;;;;5030338;28;20044;-87
2022/06/12 09:47:45;;;;;;;10.50;2.90;;;22.60;99.90;;;;;;5024448;28;20044;-87
2022/06/12 09:50:40;;;;;;;15.23;3.27;;;22.80;99.90;;;;;;5041272;28;20058;-86
2022/06/12 09:53:40;;;;;;;13.40;3.77;;;23.10;99.90;;;;;;5051185;28;20047;-89
2022/06/12 09:56:16;;;;;;;11.67;2.63;;;23.30;99.90;;;;;;5029207;28;20040;-87
2022/06/12 09:59:28;;;;;;;11.40;3.30;;;23.50;99.20;;;;;;5043897;28;20398;-88
2022/06/12 10:02:03;;;;;;;11.75;2.83;;;23.40;99.90;;;;;;5042727;28;20441;-91
2022/06/12 10:05:04;;;;;;;10.75;2.92;;;23.60;99.90;;;;;;5007156;28;20103;-85
2022/06/12 10:07:40;;;;;;;8.35;3.00;;;23.50;99.20;;;;;;5041124;28;20593;-91
2022/06/12 10:10:24;;;;;;;8.45;2.50;;;23.50;94.80;;;;;;5021178;28;20029;-90
2022/06/12 10:12:58;;;;;;;7.60;2.15;;;23.20;95.70;;;;;;5035819;28;20592;-90
2022/06/12 10:15:38;;;;;;;13.13;2.47;;;22.80;96.10;;;;;;5037624;28;20521;-89
2022/06/12 10:18:20;;;;;;;9.18;2.67;;;22.60;95.90;;;;;;5018554;28;20524;-88
2022/06/12 10:20:54;;;;;;;11.65;2.40;;;22.80;96.20;;;;;;5018150;28;20037;-88
2022/06/12 10:23:31;;;;;;;7.10;2.42;;;22.70;97.30;;;;;;5025071;28;20045;-89
2022/06/12 10:26:07;;;;;;;11.43;2.63;;;22.70;96.80;;;;;;5008281;28;20063;-87
2022/06/12 10:28:37;;;;;;;6.43;2.17;;;22.50;97.10;;;;;;5036963;28;20071;-90
2022/06/12 10:31:20;;;;;;;7.47;2.05;;;22.90;96.60;;;;;;5012362;28;20075;-93
2022/06/12 10:34:18;;;;;;;8.30;2.55;;;23.10;94.90;;;;;;5012522;28;20053;-89
2022/06/12 10:36:44;;;;;;;7.47;2.17;;;23.50;95.20;;;;;;5031851;28;20384;-89
2022/06/12 10:39:45;;;;;;;6.05;2.05;;;23.80;93.00;;;;;;5033223;28;20036;-88
2022/06/12 10:42:58;;;;;;;6.85;1.95;;;24.30;93.90;;;;;;5031872;28;20045;-87
2022/06/12 10:45:26;;;;;;;9.40;1.95;;;24.30;92.00;;;;;;5030164;28;20095;-83
2022/06/12 10:48:05;;;;;;;8.15;2.15;;;23.90;91.30;;;;;;5033191;28;20040;-89
2022/06/12 10:50:35;;;;;;;7.35;2.00;;;23.70;91.20;;;;;;5052121;28;20041;-89
2022/06/12 10:53:32;;;;;;;6.22;1.90;;;23.70;92.00;;;;;;5034714;28;20037;-87
2022/06/12 10:56:36;;;;;;;9.95;2.03;;;23.90;93.40;;;;;;5048496;28;20044;-89
2022/06/12 10:59:18;;;;;;;10.10;2.28;;;24.30;93.20;;;;;;5060315;28;20037;-90
2022/06/12 11:02:27;;;;;;;9.45;2.05;;;24.50;92.00;;;;;;5020673;28;20062;-89
2022/06/12 11:05:50;;;;;;;8.27;1.73;;;24.70;90.10;;;;;;5030654;28;20135;-89
2022/06/12 11:09:06;;;;;;;7.25;2.17;;;25.10;90.60;;;;;;5034015;28;20040;-88
2022/06/12 11:11:43;;;;;;;7.28;2.20;;;25.30;86.60;;;;;;5034353;28;20052;-92
2022/06/12 11:14:26;;;;;;;5.28;1.90;;;25.20;90.00;;;;;;5023782;28;20098;-91
2022/06/12 11:17:26;;;;;;;7.20;2.10;;;25.20;86.30;;;;;;5014105;28;20490;-87
2022/06/12 11:20:23;;;;;;;6.60;1.90;;;25.00;87.70;;;;;;5045962;28;20127;-92
2022/06/12 11:23:15;;;;;;;8.10;2.30;;;25.30;84.70;;;;;;5030514;28;20132;-89
2022/06/12 11:27:18;;;;;;;8.55;1.92;;;25.40;88.50;;;;;;5064226;28;20517;-88
2022/06/12 11:30:13;;;;;;;7.07;1.80;;;25.80;84.90;;;;;;5022532;28;20132;-88
2022/06/12 11:33:07;;;;;;;4.88;1.85;;;25.90;86.20;;;;;;5101428;23;20093;-90
2022/06/12 11:35:55;;;;;;;5.25;1.60;;;26.00;87.60;;;;;;5048705;28;20058;-89
2022/06/12 11:38:59;;;;;;;7.22;1.77;;;26.20;84.90;;;;;;5079031;28;20478;-88
2022/06/12 11:42:14;;;;;;;5.88;1.80;;;26.30;83.90;;;;;;5036576;28;20052;-94
2022/06/12 11:45:14;;;;;;;6.88;1.90;;;26.50;79.10;;;;;;5038387;28;20074;-88
2022/06/12 11:48:18;;;;;;;6.40;1.98;;;26.30;79.60;;;;;;5062031;28;20216;-90
2022/06/12 11:50:56;;;;;;;5.43;1.67;;;26.10;79.90;;;;;;5036417;28;20070;-91
2022/06/12 11:54:10;;;;;;;7.15;2.13;;;26.30;77.40;;;;;;5076247;28;20105;-90
2022/06/12 11:56:45;;;;;;;7.50;2.13;;;26.00;79.10;;;;;;5043967;28;20075;-93
2022/06/12 11:59:26;;;;;;;7.65;1.92;;;25.80;76.30;;;;;;5067933;28;20094;-92
2022/06/12 12:02:05;;;;;;;6.47;1.63;;;25.30;75.00;;;;;;5066953;28;20048;-91
2022/06/12 12:04:58;;;;;;;6.65;2.10;;;24.80;79.10;;;;;;5054321;28;20054;-89
2022/06/12 12:11:34;;;;;;;8.10;2.20;;;24.70;83.60;;;;;;5055620;22;20037;-87
2022/06/12 12:14:28;;;;;;;8.85;2.33;;;24.90;83.40;;;;;;5073476;28;20052;-84
2022/06/12 12:17:37;;;;;;;6.70;2.17;;;24.70;84.90;;;;;;5070419;27;20035;-89
2022/06/12 12:20:39;;;;;;;5.75;1.98;;;24.60;84.70;;;;;;5092480;27;20070;-91
2022/06/12 12:23:20;;;;;;;7.75;2.35;;;24.50;82.90;;;;;;4981542;28;20139;-88
2022/06/12 12:25:53;;;;;;;8.32;1.98;;;24.90;85.20;;;;;;5078948;28;20092;-88
2022/06/12 12:28:54;;;;;;;9.20;2.60;;;25.20;83.20;;;;;;5062101;28;20150;-88
2022/06/12 12:34:50;;;;;;;11.07;2.03;;;25.50;84.80;;;;;;5085858;28;20051;-88
2022/06/12 12:43:18;;;;;;;7.82;2.08;;;25.10;81.80;;;;;;5075886;28;20396;-87
2022/06/12 12:45:59;;;;;;;7.47;2.40;;;25.30;84.10;;;;;;5075578;28;20490;-89
2022/06/12 12:48:54;;;;;;;7.05;2.03;;;25.40;79.70;;;;;;5092809;28;20035;-87
2022/06/12 12:51:33;;;;;;;10.93;2.85;;;25.50;79.40;;;;;;5059396;27;20086;-89
2022/06/12 12:54:34;;;;;;;9.27;2.47;;;25.70;82.80;;;;;;5073021;28;20075;-91
2022/06/12 12:57:39;;;;;;;6.90;1.95;;;25.80;81.90;;;;;;5073285;28;20520;-88
2022/06/12 13:00:44;;;;;;;9.07;2.25;;;25.60;82.20;;;;;;5074809;28;20031;-87
2022/06/12 13:04:03;;;;;;;9.85;2.55;;;25.90;83.90;;;;;;5078850;28;20071;-90
2022/06/12 13:07:09;;;;;;;6.32;2.25;;;26.10;83.30;;;;;;5015704;28;20041;-94
2022/06/12 13:17:32;;;;;;;8.43;2.25;;;25.50;83.30;;;;;;5065086;28;20095;-94
2022/06/12 13:20:35;;;;;;;5.40;1.85;;;25.90;81.20;;;;;;5065105;28;20503;-92
2022/06/12 13:23:34;;;;;;;7.65;2.55;;;26.00;81.20;;;;;;5076954;28;20478;-89
2022/06/12 13:26:03;;;;;;;5.97;2.28;;;25.60;80.00;;;;;;5092179;28;20048;-90
2022/06/12 13:28:32;;;;;;;9.23;2.53;;;25.40;81.30;;;;;;5061864;28;20076;-87
2022/06/12 13:31:02;;;;;;;7.47;2.13;;;25.00;83.20;;;;;;5072227;28;20136;-90
2022/06/12 13:33:30;;;;;;;9.38;2.53;;;25.00;82.80;;;;;;5062392;27;20084;-89
2022/06/12 13:36:12;;;;;;;8.27;2.22;;;24.80;82.00;;;;;;5074304;28;20369;-88
2022/06/12 13:39:32;;;;;;;7.35;1.90;;;24.90;84.30;;;;;;5053125;28;20054;-91
2022/06/12 13:42:05;;;;;;;7.05;2.20;;;24.90;83.00;;;;;;5068680;28;20093;-88
2022/06/12 13:45:08;;;;;;;6.90;2.33;;;25.00;82.40;;;;;;5061888;28;20040;-92
2022/06/12 13:48:08;;;;;;;7.55;2.00;;;25.00;80.30;;;;;;5060735;27;20043;-93
2022/06/12 13:51:22;;;;;;;6.70;2.50;;;24.70;83.20;;;;;;5095568;27;20108;-87
2022/06/12 13:53:59;;;;;;;8.77;2.20;;;24.40;82.50;;;;;;5080884;27;20059;-90
2022/06/12 13:56:25;;;;;;;9.57;2.17;;;24.20;81.80;;;;;;5065470;27;20489;-89
2022/06/12 13:58:53;;;;;;;10.80;2.40;;;24.10;83.50;;;;;;5067868;28;20044;-89
2022/06/12 14:01:22;;;;;;;7.82;2.03;;;24.30;84.50;;;;;;5062451;28;20032;-90
2022/06/12 14:03:58;;;;;;;7.50;2.25;;;24.20;80.60;;;;;;5077522;28;20047;-88
2022/06/12 14:06:31;;;;;;;8.60;2.08;;;24.10;79.20;;;;;;5056260;28;20050;-86
2022/06/12 14:09:05;;;;;;;6.15;1.90;;;23.90;79.60;;;;;;5078254;28;20047;-91
2022/06/12 14:11:32;;;;;;;9.40;2.33;;;23.90;80.10;;;;;;5072576;27;20126;-88
2022/06/12 14:13:58;;;;;;;4.55;1.83;;;24.10;79.80;;;;;;5085593;28;20062;-90
2022/06/12 14:16:27;;;;;;;8.20;2.22;;;24.20;78.90;;;;;;5060425;28;20054;-88
2022/06/12 14:18:58;;;;;;;7.00;1.70;;;24.00;78.80;;;;;;5058790;28;20108;-88
2022/06/12 14:21:30;;;;;;;8.27;2.13;;;23.70;79.30;;;;;;5060454;28;20102;-92
2022/06/12 14:24:00;;;;;;;7.18;2.05;;;23.40;78.10;;;;;;5075933;28;20050;-89
2022/06/12 14:26:36;;;;;;;6.90;1.90;;;22.90;79.60;;;;;;5059654;28;20405;-88
2022/06/12 14:32:24;;;;;;;9.38;2.42;;;22.70;79.60;;;;;;5094634;28;20048;-95
2022/06/12 14:35:15;;;;;;;9.52;2.33;;;22.60;81.20;;;;;;5058096;28;20135;-90
2022/06/12 14:37:42;;;;;;;8.48;2.10;;;22.50;84.30;;;;;;5093300;28;20541;-84
2022/06/12 14:40:32;;;;;;;7.93;2.05;;;22.90;83.00;;;;;;5068876;28;20038;-91
2022/06/12 14:46:51;;;;;;;7.20;2.47;;;23.30;81.10;;;;;;5033100;28;20046;-88
2022/06/12 14:49:46;;;;;;;14.48;2.60;;;23.20;81.40;;;;;;5063862;28;20071;-90
2022/06/12 15:00:24;;;;;;;7.07;2.22;;;22.00;86.20;;;;;;5103098;28;20050;-90
2022/06/12 15:02:53;;;;;;;9.00;2.38;;;21.70;87.70;;;;;;5079061;28;20039;-92
2022/06/12 15:05:30;;;;;;;10.05;2.45;;;21.80;89.10;;;;;;5094840;28;20043;-93
2022/06/12 15:08:33;;;;;;;6.55;2.35;;;21.90;89.80;;;;;;5081335;28;20036;-92
2022/06/12 15:11:50;;;;;;;12.43;3.17;;;22.20;90.60;;;;;;5076023;28;20065;-91
2022/06/12 15:14:21;;;;;;;16.88;3.22;;;22.30;90.40;;;;;;5089639;28;20051;-88
2022/06/12 15:16:48;;;;;;;8.95;2.45;;;22.10;90.60;;;;;;5079167;28;20051;-89
2022/06/12 15:19:14;;;;;;;12.68;2.67;;;22.00;90.80;;;;;;5086071;28;20046;-88
2022/06/12 15:21:42;;;;;;;11.15;2.75;;;21.80;91.00;;;;;;5073784;28;20486;-86
2022/06/12 15:24:13;;;;;;;8.90;2.63;;;21.80;91.10;;;;;;5070404;28;20397;-87
2022/06/12 15:32:17;;;;;;;10.25;3.08;;;21.80;91.60;;;;;;5088945;28;20117;-87
2022/06/12 15:34:44;;;;;;;13.75;2.45;;;21.90;91.90;;;;;;5085457;28;20203;-89
2022/06/12 15:37:11;;;;;;;7.85;2.83;;;22.00;92.50;;;;;;5074646;28;20063;-87